Time;durP1;ratioP1;P1;durP2;ratioP2;P2;SDS_P1;SDS_P2;PMS_P1;PMS_P2;Temp;Humidity;BMP_temperature;BMP_pressure;BME280_temperature;BME280_humidity;BME280_pressure;Samples;Min_cycle;Max_cycle;Signal;HPM_P1;HPM_P2
2023/04/02 00:01:19;;;;;;;10.93;5.13;;;4.90;99.90;;;;;;5031494;28;20535;-70
2023/04/02 00:03:44;;;;;;;7.18;5.00;;;4.90;99.90;;;;;;5024460;28;20030;-70
2023/04/02 00:06:43;;;;;;;9.18;5.72;;;4.90;99.90;;;;;;5020063;28;20405;-70
2023/04/02 00:09:12;;;;;;;6.30;5.18;;;5.00;99.90;;;;;;5016581;28;20433;-69
2023/04/02 00:11:40;;;;;;;7.10;4.32;;;5.00;99.90;;;;;;5022025;28;20025;-69
2023/04/02 00:14:25;;;;;;;7.60;5.00;;;4.90;99.90;;;;;;5033924;28;20053;-69
2023/04/02 00:16:52;;;;;;;9.70;5.57;;;4.90;99.90;;;;;;5014011;28;20367;-69
2023/04/02 00:19:36;;;;;;;8.13;4.10;;;4.90;99.90;;;;;;5013138;28;20109;-69
2023/04/02 00:22:06;;;;;;;6.57;4.20;;;4.80;99.90;;;;;;5014579;28;20026;-69
2023/04/02 00:24:32;;;;;;;8.20;4.32;;;4.80;99.90;;;;;;5015514;28;20069;-69
2023/04/02 00:26:58;;;;;;;6.60;3.47;;;4.80;99.90;;;;;;5014242;28;20106;-69
2023/04/02 00:29:24;;;;;;;5.68;3.22;;;4.80;99.90;;;;;;5028138;28;20026;-69
2023/04/02 00:31:52;;;;;;;8.52;4.05;;;4.70;99.90;;;;;;5018933;28;20045;-70
2023/04/02 00:34:30;;;;;;;7.18;3.80;;;4.70;99.90;;;;;;5031435;28;20030;-69
2023/04/02 00:36:56;;;;;;;5.15;3.35;;;4.60;99.90;;;;;;5026626;28;20068;-69
2023/04/02 00:39:28;;;;;;;6.43;3.88;;;4.70;99.90;;;;;;5027990;28;20038;-69
2023/04/02 00:42:04;;;;;;;7.15;4.20;;;4.60;99.90;;;;;;5017134;28;20073;-69
2023/04/02 00:44:33;;;;;;;9.00;4.30;;;4.70;99.90;;;;;;5025202;28;20108;-69
2023/04/02 00:47:23;;;;;;;8.60;4.85;;;4.70;99.90;;;;;;5016623;28;20037;-69
2023/04/02 00:50:20;;;;;;;8.85;3.97;;;4.60;99.90;;;;;;5036880;28;20033;-69
2023/04/02 00:52:49;;;;;;;5.95;4.22;;;4.60;99.90;;;;;;5018350;28;20590;-69
2023/04/02 00:55:24;;;;;;;6.32;4.05;;;4.60;99.90;;;;;;5027315;28;20026;-69
2023/04/02 00:57:50;;;;;;;5.53;3.92;;;4.60;99.90;;;;;;5018538;28;20036;-69
2023/04/02 01:00:28;;;;;;;9.38;4.10;;;4.60;99.90;;;;;;5047042;28;20509;-70
2023/04/02 01:03:18;;;;;;;7.07;3.53;;;4.50;99.90;;;;;;5022057;28;20053;-70
2023/04/02 01:05:50;;;;;;;5.45;3.58;;;4.60;99.90;;;;;;5021946;28;20099;-70
2023/04/02 01:08:22;;;;;;;5.00;3.60;;;4.60;99.90;;;;;;5021169;28;20058;-69
2023/04/02 01:11:22;;;;;;;5.32;4.03;;;4.60;99.90;;;;;;5028635;28;20036;-70
2023/04/02 01:14:05;;;;;;;6.45;3.55;;;4.60;99.90;;;;;;5020642;28;20481;-70
2023/04/02 01:16:31;;;;;;;6.82;3.78;;;4.60;99.90;;;;;;5025409;28;20026;-70
2023/04/02 01:19:07;;;;;;;6.10;3.03;;;4.50;99.90;;;;;;5026884;28;20162;-70
2023/04/02 01:22:20;;;;;;;5.72;3.85;;;4.60;99.90;;;;;;5025163;28;20192;-70
2023/04/02 01:24:47;;;;;;;6.45;3.45;;;4.60;99.90;;;;;;5040746;28;20036;-70
2023/04/02 01:27:21;;;;;;;3.85;2.58;;;4.60;99.90;;;;;;5016160;28;20053;-70
2023/04/02 01:29:56;;;;;;;7.10;4.07;;;4.60;99.90;;;;;;5050376;28;20104;-70
2023/04/02 01:32:25;;;;;;;6.72;2.53;;;4.60;99.90;;;;;;5023074;28;20040;-70
2023/04/02 01:34:51;;;;;;;6.38;3.30;;;4.60;99.90;;;;;;5021186;28;20034;-69
2023/04/02 01:37:54;;;;;;;5.05;3.10;;;4.60;99.90;;;;;;5014441;28;20430;-69
2023/04/02 01:40:53;;;;;;;8.13;3.33;;;4.60;99.90;;;;;;5039076;28;20045;-69
2023/04/02 01:43:30;;;;;;;5.15;2.78;;;4.60;99.90;;;;;;5039984;28;20365;-69
2023/04/02 01:45:57;;;;;;;6.15;3.35;;;4.60;99.90;;;;;;5041416;28;20049;-69
2023/04/02 01:48:28;;;;;;;7.25;3.08;;;4.60;99.90;;;;;;5024280;28;20029;-69
2023/04/02 01:50:58;;;;;;;4.07;2.90;;;4.60;99.90;;;;;;5012824;28;20599;-69
2023/04/02 01:53:26;;;;;;;6.82;3.15;;;4.60;99.90;;;;;;5036104;28;20033;-69
2023/04/02 01:55:58;;;;;;;3.83;2.58;;;4.50;99.80;;;;;;5031011;28;20117;-69
2023/04/02 01:58:30;;;;;;;3.95;2.75;;;4.50;99.90;;;;;;5042063;28;20052;-69
2023/04/02 02:01:13;;;;;;;6.15;2.75;;;4.50;99.80;;;;;;5031110;28;20050;-68
2023/04/02 02:03:41;;;;;;;5.18;3.05;;;4.50;99.90;;;;;;5034611;28;20039;-68
2023/04/02 02:06:12;;;;;;;6.03;3.35;;;4.50;99.90;;;;;;5017991;28;20454;-69
2023/04/02 02:08:39;;;;;;;7.63;3.03;;;4.50;99.90;;;;;;5018545;28;20389;-68
2023/04/02 02:11:10;;;;;;;9.80;3.22;;;4.50;99.90;;;;;;5012444;28;20053;-68
2023/04/02 02:13:36;;;;;;;5.50;3.75;;;4.50;99.90;;;;;;5034126;28;20040;-69
2023/04/02 02:16:03;;;;;;;6.30;3.20;;;4.60;99.90;;;;;;5031106;28;20116;-68
2023/04/02 02:18:29;;;;;;;5.22;2.70;;;4.60;99.90;;;;;;5031116;28;20026;-69
2023/04/02 02:20:58;;;;;;;6.55;2.92;;;4.60;99.90;;;;;;5031659;28;20028;-69
2023/04/02 02:23:26;;;;;;;5.07;2.65;;;4.60;99.90;;;;;;5019593;28;20065;-69
2023/04/02 02:25:54;;;;;;;7.35;3.05;;;4.60;99.90;;;;;;5020826;28;20111;-68
2023/04/02 02:28:32;;;;;;;6.78;3.47;;;4.60;99.90;;;;;;5023788;28;20531;-69
2023/04/02 02:31:16;;;;;;;6.40;3.15;;;4.60;99.90;;;;;;5021857;28;20026;-68
2023/04/02 02:33:49;;;;;;;3.60;2.70;;;4.60;99.90;;;;;;5013545;28;20029;-69
2023/04/02 02:36:27;;;;;;;5.82;2.80;;;4.60;99.90;;;;;;5027412;28;20037;-69
2023/04/02 02:39:12;;;;;;;3.97;2.65;;;4.60;99.70;;;;;;5051809;28;20104;-68
2023/04/02 02:41:38;;;;;;;4.18;2.45;;;4.60;99.60;;;;;;5022826;28;20032;-69
2023/04/02 02:44:10;;;;;;;4.47;3.00;;;4.60;99.70;;;;;;5029764;28;20034;-69
2023/04/02 02:46:53;;;;;;;6.22;2.40;;;4.60;99.70;;;;;;5013453;28;20100;-69
2023/04/02 02:49:25;;;;;;;6.45;3.05;;;4.70;99.80;;;;;;5034979;28;20385;-68
2023/04/02 02:52:13;;;;;;;3.17;2.28;;;4.60;99.60;;;;;;5018566;28;20040;-68
2023/04/02 02:54:53;;;;;;;7.20;3.47;;;4.60;99.30;;;;;;5024838;28;20087;-68
2023/04/02 02:57:26;;;;;;;4.93;2.75;;;4.60;99.30;;;;;;5011488;28;20032;-69
2023/04/02 02:59:55;;;;;;;4.78;2.55;;;4.50;99.10;;;;;;5038864;28;20052;-69
2023/04/02 03:02:23;;;;;;;7.22;2.88;;;4.50;99.10;;;;;;5044705;28;20028;-67
2023/04/02 03:04:54;;;;;;;5.95;2.95;;;4.50;99.10;;;;;;5024255;28;20037;-69
2023/04/02 03:07:25;;;;;;;7.65;2.90;;;4.50;99.10;;;;;;5021075;28;20024;-69
2023/04/02 03:10:11;;;;;;;3.05;2.20;;;4.50;99.10;;;;;;5031618;28;20017;-67
2023/04/02 03:12:55;;;;;;;5.45;2.55;;;4.50;99.10;;;;;;5025711;28;20034;-68
2023/04/02 03:15:45;;;;;;;6.28;2.78;;;4.40;99.10;;;;;;5011277;28;20026;-68
2023/04/02 03:18:18;;;;;;;4.30;2.50;;;4.50;99.10;;;;;;5017842;28;20386;-68
2023/04/02 03:20:52;;;;;;;5.25;2.45;;;4.50;98.90;;;;;;5024303;28;20393;-68
2023/04/02 03:23:33;;;;;;;4.18;1.98;;;4.50;98.90;;;;;;5027033;28;20033;-67
2023/04/02 03:26:21;;;;;;;4.60;2.30;;;4.40;99.00;;;;;;5019491;28;20120;-68
2023/04/02 03:29:21;;;;;;;4.95;2.05;;;4.50;98.90;;;;;;5023832;28;20135;-68
2023/04/02 03:31:53;;;;;;;4.40;2.20;;;4.40;98.90;;;;;;5019944;28;20087;-68
2023/04/02 03:34:22;;;;;;;3.22;1.98;;;4.50;98.90;;;;;;5033287;28;20084;-68
2023/04/02 03:37:11;;;;;;;4.55;2.53;;;4.50;99.00;;;;;;5033163;28;20029;-68
2023/04/02 03:39:45;;;;;;;7.95;2.50;;;4.50;99.00;;;;;;5027052;28;20436;-68
2023/04/02 03:42:25;;;;;;;5.45;2.22;;;4.60;98.80;;;;;;5035515;28;20025;-68
2023/04/02 03:45:03;;;;;;;5.53;2.60;;;4.50;98.90;;;;;;5043712;28;20034;-68
2023/04/02 03:47:41;;;;;;;7.97;2.45;;;4.50;98.80;;;;;;5043723;28;20138;-69
2023/04/02 03:50:10;;;;;;;4.43;2.58;;;4.60;98.70;;;;;;5026317;28;20536;-68
2023/04/02 03:52:37;;;;;;;4.55;2.83;;;4.50;98.70;;;;;;5034586;28;20064;-68
2023/04/02 03:55:21;;;;;;;4.68;2.63;;;4.50;98.60;;;;;;5022366;28;20470;-68
2023/04/02 03:58:05;;;;;;;3.95;2.40;;;4.50;98.70;;;;;;5034007;28;20087;-68
2023/04/02 04:00:55;;;;;;;4.32;2.05;;;4.50;98.70;;;;;;5014706;28;20042;-68
2023/04/02 04:03:28;;;;;;;3.35;2.20;;;4.50;98.70;;;;;;5023762;28;20259;-68
2023/04/02 04:06:06;;;;;;;5.20;2.10;;;4.50;98.80;;;;;;5025643;28;20048;-68
2023/04/02 04:08:41;;;;;;;4.65;2.20;;;4.50;98.80;;;;;;5029524;28;20033;-68
2023/04/02 04:11:14;;;;;;;4.53;2.20;;;4.50;98.90;;;;;;5028447;28;20115;-69
2023/04/02 04:14:03;;;;;;;5.20;3.28;;;4.60;99.00;;;;;;5015548;28;20045;-69
2023/04/02 04:16:40;;;;;;;7.88;2.65;;;4.50;99.00;;;;;;5018010;28;20137;-68
2023/04/02 04:19:11;;;;;;;6.45;2.95;;;4.60;99.00;;;;;;5030924;28;20855;-67
2023/04/02 04:21:37;;;;;;;3.55;1.88;;;4.60;98.90;;;;;;5022314;28;20057;-67
2023/04/02 04:24:21;;;;;;;5.68;2.55;;;4.60;99.00;;;;;;5028902;28;20548;-67
2023/04/02 04:27:02;;;;;;;4.32;2.05;;;4.60;98.90;;;;;;5024002;28;20064;-68
2023/04/02 04:29:56;;;;;;;6.18;2.20;;;4.60;98.90;;;;;;5014287;28;20083;-68
2023/04/02 04:32:32;;;;;;;5.22;2.30;;;4.60;98.90;;;;;;5032531;28;20041;-68
2023/04/02 04:35:13;;;;;;;6.00;2.03;;;4.50;98.80;;;;;;5022353;28;20608;-68
2023/04/02 04:37:42;;;;;;;5.97;2.25;;;4.60;99.00;;;;;;5029591;28;20033;-67
2023/04/02 04:40:17;;;;;;;5.82;2.92;;;4.60;98.90;;;;;;5036229;28;20453;-68
2023/04/02 04:42:44;;;;;;;5.32;2.08;;;4.60;99.00;;;;;;5029370;28;20044;-68
2023/04/02 04:45:16;;;;;;;4.30;2.20;;;4.60;99.00;;;;;;5029435;28;20487;-68
2023/04/02 04:47:58;;;;;;;4.40;2.40;;;4.70;99.00;;;;;;5026944;28;20022;-68
2023/04/02 04:50:35;;;;;;;3.70;2.35;;;4.70;99.00;;;;;;5013337;28;20026;-68
2023/04/02 04:53:15;;;;;;;5.38;2.55;;;4.70;98.80;;;;;;5032102;28;20314;-68
2023/04/02 04:55:46;;;;;;;4.72;2.47;;;4.70;98.90;;;;;;5029202;28;20029;-67
2023/04/02 04:58:30;;;;;;;2.95;1.83;;;4.70;98.80;;;;;;5027769;28;20422;-68
2023/04/02 05:01:15;;;;;;;3.85;1.98;;;4.70;98.90;;;;;;5013616;28;20045;-68
2023/04/02 05:04:18;;;;;;;9.23;2.77;;;4.70;98.90;;;;;;5032349;28;20087;-69
2023/04/02 05:07:14;;;;;;;3.75;2.30;;;4.80;98.90;;;;;;5013666;28;20034;-68
2023/04/02 05:10:08;;;;;;;3.63;2.08;;;4.80;98.80;;;;;;5020911;28;20113;-68
2023/04/02 05:12:45;;;;;;;6.03;2.03;;;4.80;98.80;;;;;;5019632;28;20033;-67
2023/04/02 05:15:32;;;;;;;3.78;1.83;;;4.80;98.70;;;;;;5019624;28;20026;-68
2023/04/02 05:18:10;;;;;;;4.35;2.25;;;4.80;98.80;;;;;;5039209;28;20469;-68
2023/04/02 05:21:05;;;;;;;5.63;2.20;;;4.80;98.90;;;;;;5025874;28;20100;-68
2023/04/02 05:23:44;;;;;;;4.22;2.42;;;4.90;99.00;;;;;;5046788;28;20025;-69
2023/04/02 05:26:17;;;;;;;4.78;2.88;;;4.90;99.00;;;;;;5029049;28;20123;-69
2023/04/02 05:29:11;;;;;;;4.07;2.03;;;4.90;98.70;;;;;;5020234;28;20033;-69
2023/04/02 05:31:42;;;;;;;3.40;2.28;;;4.90;98.80;;;;;;5019086;28;20032;-68
2023/04/02 05:34:11;;;;;;;4.43;2.80;;;4.90;98.60;;;;;;5012934;28;20371;-68
2023/04/02 05:36:36;;;;;;;6.55;2.65;;;5.00;98.60;;;;;;5031326;28;20452;-68
2023/04/02 05:39:08;;;;;;;5.03;2.60;;;4.90;98.50;;;;;;5012895;28;20030;-68
2023/04/02 05:41:46;;;;;;;4.10;2.13;;;4.90;98.40;;;;;;5017368;28;20508;-68
2023/04/02 05:44:26;;;;;;;5.05;2.30;;;4.90;98.50;;;;;;5025937;28;20359;-68
2023/04/02 05:47:06;;;;;;;6.55;2.72;;;5.00;98.50;;;;;;5039375;28;20073;-68
2023/04/02 05:49:38;;;;;;;2.92;1.98;;;5.00;98.60;;;;;;5018404;28;20454;-68
2023/04/02 05:52:07;;;;;;;3.10;2.10;;;5.10;98.30;;;;;;5023326;28;20033;-68
2023/04/02 05:55:01;;;;;;;4.57;2.45;;;5.10;98.10;;;;;;5037536;28;20029;-68
2023/04/02 05:57:40;;;;;;;3.13;2.00;;;5.10;98.10;;;;;;5022105;28;20156;-68
2023/04/02 06:00:12;;;;;;;8.52;2.30;;;5.10;97.80;;;;;;5018718;28;20042;-68
2023/04/02 06:02:52;;;;;;;4.68;2.33;;;5.10;97.40;;;;;;5030218;28;20030;-68
2023/04/02 06:05:27;;;;;;;3.90;2.10;;;5.10;97.50;;;;;;5021035;28;20500;-69
2023/04/02 06:08:40;;;;;;;5.65;2.15;;;5.10;97.60;;;;;;5017842;28;20038;-68
2023/04/02 06:11:11;;;;;;;4.07;1.92;;;5.00;97.50;;;;;;5019120;28;20029;-65
2023/04/02 06:13:36;;;;;;;4.43;2.15;;;5.10;97.70;;;;;;5023371;28;20500;-66
2023/04/02 06:16:03;;;;;;;4.53;2.55;;;5.20;98.00;;;;;;5021867;28;20037;-67
2023/04/02 06:18:36;;;;;;;5.97;2.50;;;5.30;97.80;;;;;;5023325;28;20020;-66
2023/04/02 06:21:04;;;;;;;4.70;1.80;;;5.30;97.20;;;;;;5020082;28;20029;-67
2023/04/02 06:23:48;;;;;;;5.03;1.95;;;5.20;96.90;;;;;;5018700;28;20026;-65
2023/04/02 06:26:26;;;;;;;5.25;2.10;;;5.30;97.10;;;;;;5013738;28;20042;-66
2023/04/02 06:29:13;;;;;;;5.20;2.20;;;5.30;96.50;;;;;;5037350;28;20041;-66
2023/04/02 06:31:55;;;;;;;3.47;1.80;;;5.30;96.30;;;;;;5020807;28;20499;-66
2023/04/02 06:34:24;;;;;;;4.72;1.60;;;5.30;96.10;;;;;;5032306;28;20052;-68
2023/04/02 06:36:54;;;;;;;3.17;1.90;;;5.30;96.00;;;;;;5012624;28;20540;-68
2023/04/02 06:39:22;;;;;;;4.93;1.50;;;5.30;96.30;;;;;;5021541;28;20031;-68
2023/04/02 06:42:05;;;;;;;5.20;1.90;;;5.40;96.20;;;;;;5013295;28;20232;-68
2023/04/02 06:44:34;;;;;;;4.05;2.25;;;5.30;96.20;;;;;;5026937;28;20021;-68
2023/04/02 06:47:24;;;;;;;2.58;1.80;;;5.50;96.60;;;;;;5019010;28;20505;-67
2023/04/02 06:50:17;;;;;;;3.90;1.73;;;5.60;96.30;;;;;;5030850;28;20017;-67
2023/04/02 06:52:50;;;;;;;4.25;1.65;;;5.60;96.40;;;;;;5011533;28;20287;-68
2023/04/02 06:55:33;;;;;;;4.50;2.33;;;5.60;96.50;;;;;;5015762;28;20041;-68
2023/04/02 06:57:59;;;;;;;5.03;1.80;;;5.80;96.60;;;;;;5016284;28;20521;-68
2023/04/02 07:00:32;;;;;;;4.20;1.95;;;5.80;96.40;;;;;;5026242;28;20073;-68
2023/04/02 07:03:00;;;;;;;5.13;1.83;;;5.90;96.20;;;;;;5014557;28;20025;-68
2023/04/02 07:05:26;;;;;;;3.05;1.73;;;5.90;95.60;;;;;;5029775;28;20084;-67
2023/04/02 07:07:51;;;;;;;4.05;1.83;;;5.90;95.10;;;;;;5028221;28;20504;-68
2023/04/02 07:10:19;;;;;;;5.00;2.20;;;5.90;94.40;;;;;;5034744;28;20028;-68
2023/04/02 07:12:45;;;;;;;7.25;2.15;;;5.90;94.80;;;;;;5044713;28;20060;-67
2023/04/02 07:15:17;;;;;;;3.42;1.50;;;5.90;94.80;;;;;;5018203;28;20494;-68
2023/04/02 07:17:43;;;;;;;5.28;2.05;;;5.90;94.70;;;;;;5032595;28;20025;-67
2023/04/02 07:20:26;;;;;;;4.38;2.00;;;5.90;94.60;;;;;;5037063;28;20029;-68
2023/04/02 07:22:52;;;;;;;6.53;2.63;;;6.00;94.50;;;;;;5024601;28;20410;-68
2023/04/02 07:25:17;;;;;;;3.55;1.50;;;6.00;94.20;;;;;;5031082;28;20069;-68
2023/04/02 07:27:43;;;;;;;5.05;2.20;;;6.00;93.80;;;;;;5021547;28;20067;-68
2023/04/02 07:30:09;;;;;;;3.55;1.55;;;6.00;94.00;;;;;;5029176;28;20022;-68
2023/04/02 07:32:35;;;;;;;3.15;1.58;;;6.00;94.20;;;;;;5018993;28;20128;-68
2023/04/02 07:35:01;;;;;;;2.80;1.88;;;6.00;94.10;;;;;;5019286;28;20122;-68
2023/04/02 07:37:27;;;;;;;4.55;1.75;;;6.00;94.20;;;;;;5020337;28;20109;-67
2023/04/02 07:39:52;;;;;;;2.70;1.90;;;6.00;93.60;;;;;;5021356;28;20108;-68
2023/04/02 07:42:18;;;;;;;3.33;1.80;;;6.00;93.80;;;;;;5037873;28;20025;-68
2023/04/02 07:44:44;;;;;;;4.45;1.58;;;6.00;93.60;;;;;;5024203;28;20092;-67
2023/04/02 07:47:10;;;;;;;4.85;2.40;;;6.00;93.30;;;;;;5027390;28;20482;-68
2023/04/02 07:49:35;;;;;;;3.92;1.58;;;6.10;93.50;;;;;;5035853;28;20519;-67
2023/04/02 07:52:01;;;;;;;3.97;1.90;;;6.20;93.60;;;;;;5020709;28;20062;-67
2023/04/02 07:54:27;;;;;;;4.70;1.65;;;6.20;93.30;;;;;;5034224;28;20025;-68
2023/04/02 07:56:52;;;;;;;5.13;2.28;;;6.20;93.40;;;;;;5031627;28;20075;-68
2023/04/02 07:59:18;;;;;;;3.75;1.58;;;6.20;93.30;;;;;;5017004;28;20046;-68
2023/04/02 08:01:43;;;;;;;5.57;1.73;;;6.20;93.60;;;;;;5023303;28;20029;-68
2023/04/02 08:04:20;;;;;;;4.85;2.28;;;6.40;93.50;;;;;;5031787;28;20112;-68
2023/04/02 08:06:47;;;;;;;5.63;2.00;;;6.30;93.20;;;;;;5023497;28;20128;-68
2023/04/02 08:09:13;;;;;;;3.00;1.88;;;6.40;92.70;;;;;;5031024;28;20029;-68
2023/04/02 08:11:41;;;;;;;3.60;1.77;;;6.40;92.90;;;;;;5030087;28;20026;-68
2023/04/02 08:14:07;;;;;;;5.45;1.75;;;6.40;93.10;;;;;;5034500;28;20429;-68
2023/04/02 08:17:02;;;;;;;2.70;1.60;;;6.40;93.40;;;;;;5030947;28;20040;-69
2023/04/02 08:19:28;;;;;;;6.03;1.92;;;6.40;93.40;;;;;;5031695;28;20493;-68
2023/04/02 08:21:54;;;;;;;2.83;1.70;;;6.40;93.40;;;;;;5025155;28;20067;-68
2023/04/02 08:24:20;;;;;;;8.35;2.28;;;6.40;93.40;;;;;;5023982;28;20084;-69
2023/04/02 08:26:47;;;;;;;4.18;2.40;;;6.40;93.30;;;;;;5026306;28;20044;-71
2023/04/02 08:29:13;;;;;;;3.70;2.05;;;6.40;93.10;;;;;;5025660;28;20021;-69
2023/04/02 08:31:39;;;;;;;4.22;1.90;;;6.40;93.40;;;;;;5031633;28;20040;-68
2023/04/02 08:34:04;;;;;;;2.75;1.80;;;6.40;93.30;;;;;;5033100;28;20033;-68
2023/04/02 08:36:37;;;;;;;2.53;1.67;;;6.50;93.30;;;;;;5028946;28;20026;-69
2023/04/02 08:39:10;;;;;;;7.15;2.40;;;6.60;93.40;;;;;;5016377;28;20033;-70
2023/04/02 08:41:40;;;;;;;3.63;2.25;;;6.60;93.20;;;;;;5017244;28;20025;-69
2023/04/02 08:44:25;;;;;;;4.75;2.08;;;6.70;93.10;;;;;;5034524;28;20078;-69
2023/04/02 08:46:58;;;;;;;5.53;2.17;;;6.70;93.00;;;;;;5018020;28;20045;-69
2023/04/02 08:49:50;;;;;;;3.95;1.70;;;6.70;93.10;;;;;;5022549;28;20033;-69
2023/04/02 08:52:26;;;;;;;5.15;2.45;;;6.80;93.20;;;;;;5015024;28;20034;-69
2023/04/02 08:54:54;;;;;;;4.85;2.10;;;6.80;92.90;;;;;;5022630;28;20034;-69
2023/04/02 08:57:21;;;;;;;7.22;2.38;;;6.90;93.30;;;;;;5020906;28;20107;-68
2023/04/02 08:59:58;;;;;;;4.38;2.08;;;7.10;93.20;;;;;;5012860;28;20490;-68
2023/04/02 09:02:40;;;;;;;4.57;2.22;;;7.00;92.50;;;;;;5021264;28;20044;-69
2023/04/02 09:05:14;;;;;;;6.20;2.72;;;7.00;92.10;;;;;;5013388;28;20037;-68
2023/04/02 09:07:40;;;;;;;5.93;2.28;;;7.00;92.20;;;;;;5026122;28;20038;-68
2023/04/02 09:10:15;;;;;;;3.95;1.90;;;6.90;92.10;;;;;;5028279;28;20275;-68
2023/04/02 09:12:45;;;;;;;6.45;2.03;;;6.90;91.70;;;;;;5017464;28;20036;-69
2023/04/02 09:15:43;;;;;;;2.47;1.75;;;6.80;91.70;;;;;;5028911;28;20036;-68
2023/04/02 09:18:15;;;;;;;2.95;1.55;;;6.70;91.90;;;;;;5031819;28;20072;-68
2023/04/02 09:20:41;;;;;;;4.70;2.22;;;6.70;91.70;;;;;;5039822;28;20029;-68
2023/04/02 09:23:18;;;;;;;4.93;2.58;;;6.70;91.80;;;;;;5013106;28;20022;-68
2023/04/02 09:25:48;;;;;;;3.72;1.98;;;6.90;92.20;;;;;;5032146;28;20029;-68
2023/04/02 09:28:14;;;;;;;4.00;2.15;;;7.00;91.50;;;;;;5014760;28;20062;-68
2023/04/02 09:30:51;;;;;;;4.80;2.10;;;7.00;91.60;;;;;;5028820;28;20029;-68
2023/04/02 09:33:16;;;;;;;3.95;1.80;;;7.00;91.20;;;;;;5015346;28;20448;-68
2023/04/02 09:35:48;;;;;;;6.22;1.73;;;7.00;91.00;;;;;;5018687;28;20076;-68
2023/04/02 09:38:21;;;;;;;3.58;1.48;;;7.00;90.80;;;;;;5026555;28;20051;-67
2023/04/02 09:40:53;;;;;;;5.95;1.65;;;7.00;90.80;;;;;;5016034;28;20017;-68
2023/04/02 09:43:24;;;;;;;3.45;1.90;;;7.00;91.10;;;;;;5020649;28;20037;-68
2023/04/02 09:46:16;;;;;;;3.25;1.58;;;7.10;90.80;;;;;;5020512;28;20087;-70
2023/04/02 09:48:59;;;;;;;2.40;1.38;;;7.20;90.80;;;;;;5015285;28;20030;-69
2023/04/02 09:51:28;;;;;;;4.68;1.67;;;7.30;90.80;;;;;;5018871;28;20339;-69
2023/04/02 09:54:03;;;;;;;5.88;2.33;;;7.40;90.30;;;;;;5013074;28;20053;-68
2023/04/02 09:56:36;;;;;;;6.47;2.00;;;7.50;90.50;;;;;;5017418;28;20049;-68
2023/04/02 09:59:17;;;;;;;4.38;1.70;;;7.70;90.30;;;;;;5019140;28;20507;-69
2023/04/02 10:01:46;;;;;;;4.10;1.85;;;7.80;89.60;;;;;;5015709;28;20041;-68
2023/04/02 10:04:31;;;;;;;3.42;1.70;;;7.80;89.00;;;;;;5015578;28;20037;-69
2023/04/02 10:06:57;;;;;;;4.38;2.35;;;7.80;88.60;;;;;;5013275;28;20034;-69
2023/04/02 10:09:31;;;;;;;5.47;1.63;;;7.90;89.30;;;;;;5024582;28;20028;-68
2023/04/02 10:11:58;;;;;;;3.08;1.55;;;8.00;89.00;;;;;;5026844;28;20029;-68
2023/04/02 10:14:30;;;;;;;4.93;1.70;;;8.10;89.10;;;;;;5018691;28;20116;-68
2023/04/02 10:17:00;;;;;;;4.10;1.80;;;8.10;89.20;;;;;;5026791;28;20381;-68
2023/04/02 10:19:33;;;;;;;3.85;2.13;;;8.10;88.30;;;;;;5028769;28;20021;-68
2023/04/02 10:22:03;;;;;;;3.63;1.58;;;8.10;88.50;;;;;;5021829;28;20069;-70
2023/04/02 10:24:29;;;;;;;4.93;2.00;;;8.10;88.30;;;;;;5013041;28;20021;-68
2023/04/02 10:27:03;;;;;;;4.88;2.00;;;8.20;88.80;;;;;;5027835;28;20052;-68
2023/04/02 10:29:29;;;;;;;2.78;1.70;;;8.20;88.70;;;;;;5016584;28;20025;-69
2023/04/02 10:32:12;;;;;;;4.45;1.83;;;8.20;87.80;;;;;;5037511;28;20037;-68
2023/04/02 10:34:44;;;;;;;5.20;2.40;;;8.20;88.20;;;;;;5024602;28;20028;-68
2023/04/02 10:37:36;;;;;;;3.75;1.85;;;8.20;88.00;;;;;;5034280;28;20099;-68
2023/04/02 10:40:25;;;;;;;7.82;2.08;;;8.20;88.50;;;;;;5042976;28;20049;-68
2023/04/02 10:43:03;;;;;;;4.13;2.03;;;8.20;88.80;;;;;;5019641;28;20488;-68
2023/04/02 10:45:38;;;;;;;3.72;2.15;;;8.20;88.20;;;;;;5031916;28;20047;-68
2023/04/02 10:48:20;;;;;;;4.28;1.38;;;8.30;88.30;;;;;;5021376;28;20038;-68
2023/04/02 10:51:04;;;;;;;4.10;1.60;;;8.30;87.80;;;;;;5030913;28;20032;-68
2023/04/02 10:54:07;;;;;;;4.18;2.00;;;8.20;87.90;;;;;;5014351;28;20030;-68
2023/04/02 10:56:33;;;;;;;4.53;1.67;;;8.20;87.80;;;;;;5032221;28;20029;-69
2023/04/02 10:59:23;;;;;;;6.75;1.98;;;8.20;87.70;;;;;;5029853;28;20035;-69
2023/04/02 11:01:51;;;;;;;4.13;1.60;;;8.10;86.90;;;;;;5015500;28;20044;-68
2023/04/02 11:04:42;;;;;;;6.63;2.45;;;8.10;87.00;;;;;;5022189;28;20478;-69
2023/04/02 11:07:16;;;;;;;3.50;1.55;;;8.10;87.40;;;;;;5020827;28;20057;-69
2023/04/02 11:09:46;;;;;;;2.97;1.65;;;8.10;87.10;;;;;;5013100;28;20022;-67
2023/04/02 11:12:40;;;;;;;5.00;1.90;;;8.10;87.40;;;;;;5021123;28;20033;-69
2023/04/02 11:15:15;;;;;;;4.43;1.90;;;8.20;88.30;;;;;;5027787;28;20034;-69
2023/04/02 11:17:42;;;;;;;6.80;2.10;;;8.30;88.60;;;;;;5021957;28;20477;-69
2023/04/02 11:20:55;;;;;;;3.22;1.80;;;8.50;88.60;;;;;;5023319;28;20040;-69
2023/04/02 11:23:20;;;;;;;7.07;2.25;;;8.50;88.00;;;;;;5010537;28;20038;-69
2023/04/02 11:25:46;;;;;;;3.85;2.00;;;8.50;87.50;;;;;;5025794;28;20083;-68
2023/04/02 11:28:25;;;;;;;8.43;2.45;;;8.60;88.00;;;;;;5023393;28;20374;-68
2023/04/02 11:30:52;;;;;;;3.75;1.88;;;8.50;87.30;;;;;;5019187;28;20113;-68
2023/04/02 11:33:38;;;;;;;4.07;1.80;;;8.50;86.60;;;;;;5017690;28;20044;-67
2023/04/02 11:36:05;;;;;;;4.80;1.60;;;8.50;86.50;;;;;;5025576;28;20037;-68
2023/04/02 11:38:47;;;;;;;5.05;2.10;;;8.40;86.10;;;;;;5025106;28;20108;-69
2023/04/02 11:41:13;;;;;;;4.18;1.77;;;8.40;86.40;;;;;;5023728;28;20072;-67
2023/04/02 11:43:40;;;;;;;5.28;1.88;;;8.30;86.20;;;;;;5023100;28;20053;-65
2023/04/02 11:46:28;;;;;;;6.13;2.47;;;8.20;86.70;;;;;;5039036;28;20037;-69
2023/04/02 11:49:32;;;;;;;4.03;2.55;;;8.20;86.80;;;;;;5016159;28;20060;-69
2023/04/02 11:51:58;;;;;;;5.40;1.85;;;8.20;87.50;;;;;;5028380;28;20554;-67
2023/04/02 11:54:26;;;;;;;5.22;1.77;;;8.30;87.90;;;;;;5029841;28;20115;-66
2023/04/02 11:57:03;;;;;;;6.88;2.17;;;8.30;87.30;;;;;;5030828;28;20044;-67
2023/04/02 12:00:06;;;;;;;4.10;2.00;;;8.30;87.10;;;;;;5032209;28;20049;-67
2023/04/02 12:03:05;;;;;;;3.95;2.05;;;8.40;87.20;;;;;;5023060;28;20412;-68
2023/04/02 12:05:38;;;;;;;4.85;2.38;;;8.60;87.30;;;;;;5029523;28;20049;-67
2023/04/02 12:08:18;;;;;;;5.05;2.00;;;8.70;86.70;;;;;;5022131;28;20021;-68
2023/04/02 12:10:59;;;;;;;2.78;1.65;;;8.80;86.80;;;;;;5017338;28;20087;-67
2023/04/02 12:13:40;;;;;;;6.90;2.38;;;8.90;86.80;;;;;;5037678;28;20039;-68
2023/04/02 12:16:08;;;;;;;4.38;2.15;;;9.00;86.40;;;;;;5019146;28;20500;-68
2023/04/02 12:18:35;;;;;;;3.92;2.03;;;9.00;86.60;;;;;;5028398;28;20432;-68
2023/04/02 12:21:01;;;;;;;5.53;2.72;;;9.10;86.40;;;;;;5021625;28;20549;-68
2023/04/02 12:23:32;;;;;;;3.88;1.70;;;9.10;85.90;;;;;;5033293;28;20036;-68
2023/04/02 12:26:07;;;;;;;5.35;2.17;;;9.10;85.60;;;;;;5019799;28;20034;-67
2023/04/02 12:28:36;;;;;;;4.32;2.00;;;9.10;84.60;;;;;;5045749;28;20030;-68
2023/04/02 12:31:08;;;;;;;3.47;1.77;;;9.00;84.90;;;;;;5029064;28;20037;-68
2023/04/02 12:33:36;;;;;;;4.95;2.33;;;9.10;84.00;;;;;;5030075;28;20716;-67
2023/04/02 12:36:15;;;;;;;3.65;1.83;;;9.10;84.20;;;;;;5030234;28;20029;-67
2023/04/02 12:38:46;;;;;;;5.80;2.35;;;9.10;82.10;;;;;;5019248;28;20083;-67
2023/04/02 12:41:23;;;;;;;6.50;2.50;;;9.00;82.80;;;;;;5029513;28;20029;-67
2023/04/02 12:43:58;;;;;;;6.93;2.25;;;9.10;83.50;;;;;;5043050;28;20052;-67
2023/04/02 12:46:24;;;;;;;2.35;1.50;;;9.10;82.10;;;;;;5017412;28;20034;-67
2023/04/02 12:49:03;;;;;;;6.28;1.70;;;9.20;82.90;;;;;;5017806;28;20055;-67
2023/04/02 12:51:29;;;;;;;3.88;1.77;;;9.30;82.90;;;;;;5029506;28;20120;-68
2023/04/02 12:53:56;;;;;;;5.45;2.30;;;9.40;82.40;;;;;;5029236;28;20154;-68
2023/04/02 12:56:22;;;;;;;4.13;1.60;;;9.40;82.90;;;;;;5020949;28;20120;-68
2023/04/02 12:58:53;;;;;;;3.30;1.70;;;9.50;82.40;;;;;;5016066;28;20113;-68
2023/04/02 13:01:26;;;;;;;5.70;1.90;;;9.50;82.60;;;;;;5025730;28;20051;-68
2023/04/02 13:04:18;;;;;;;5.43;1.63;;;9.50;82.50;;;;;;5028473;28;20094;-67
2023/04/02 13:06:56;;;;;;;3.55;1.50;;;9.40;80.90;;;;;;5018988;28;20497;-67
2023/04/02 13:09:34;;;;;;;6.63;2.25;;;9.40;81.20;;;;;;5017715;28;20018;-67
2023/04/02 13:12:01;;;;;;;5.28;1.70;;;9.50;81.30;;;;;;5023636;28;20040;-68
2023/04/02 13:14:28;;;;;;;4.10;1.58;;;9.50;81.20;;;;;;5038984;28;20160;-68
2023/04/02 13:16:54;;;;;;;5.38;1.60;;;9.60;80.80;;;;;;5021208;28;20044;-68
2023/04/02 13:19:30;;;;;;;3.53;1.52;;;9.70;80.50;;;;;;5012420;28;20036;-66
2023/04/02 13:21:58;;;;;;;4.22;1.67;;;9.80;79.70;;;;;;5024006;28;20033;-67
2023/04/02 13:24:29;;;;;;;4.25;1.40;;;9.80;80.20;;;;;;5033721;28;20033;-68
2023/04/02 13:26:58;;;;;;;2.97;1.70;;;9.90;80.00;;;;;;5014790;28;20056;-67
2023/04/02 13:29:30;;;;;;;4.45;1.58;;;9.90;79.80;;;;;;5022838;28;20496;-67
2023/04/02 13:32:02;;;;;;;3.88;1.58;;;10.10;79.30;;;;;;5024767;28;20172;-67
2023/04/02 13:34:29;;;;;;;4.07;1.92;;;10.00;79.20;;;;;;5020889;28;20040;-68
2023/04/02 13:36:56;;;;;;;4.93;1.77;;;10.00;79.50;;;;;;5022268;28;20029;-68
2023/04/02 13:39:22;;;;;;;3.88;1.42;;;10.00;79.00;;;;;;5024003;28;20041;-68